Opsrey — WDD8295 — position and weather

sailwx.info

Track history (hours):
 
Tides and Currents Weather Stations Pressure Air Temp Water Temp Dewpoint Dewpoint Depression Visibility Wind Speed Wind Dir Waves Ship Positions

Opsrey

Owner: Clarke Jr, John H, Centreville, MD. More information available from US FCC via Universal Licensing System and Coast Guard Vessel Documentation Center.

Last reported at 2017-Oct-14 23:33 UTC. Time now 2017-Nov-19 12:31 UTC.
Position N 39°24' W 076°03'.
Warning: this ship's position is 35 days out of date.

Length 14 m.

Type: Sailing vessel. MMSI: 367197380.

Date/timePositionNaut miles runAvg speedWind from/ knotsBaromVisibWave heightAir tempDewpointWater temp
2017-Oct-14 23:33N 39°24' W 076°03'1 6.4
2017-Oct-14 23:19N 39°25' W 076°02'2 6.1
2017-Oct-14 22:58N 39°27' W 075°60'3 5.8
2017-Oct-14 22:31N 39°29' W 075°57'3 5.4
2017-Oct-14 22:01N 39°30' W 075°55'3 5.0
2017-Oct-14 21:30N 39°32' W 075°52'2 4.6
2017-Oct-14 21:00N 39°32' W 075°49'2 4.5
2017-Oct-14 20:30N 39°32' W 075°46'2 4.3
2017-Oct-14 20:00N 39°33' W 075°43'2 4.2
2017-Oct-14 19:30N 39°33' W 075°41'2 4.0
2017-Oct-14 19:00N 39°33' W 075°38'2 4.0
2017-Oct-14 18:30N 39°33' W 075°36'2 4.0
2017-Oct-14 18:00N 39°33' W 075°33'2 3.4
2017-Oct-14 17:30N 39°32' W 075°33'2 3.5
2017-Oct-14 17:00N 39°30' W 075°33'1 2.8
2017-Oct-14 16:30N 39°29' W 075°33'2 3.8
2017-Oct-14 16:00N 39°27' W 075°32'2 3.6
2017-Oct-14 15:30N 39°25' W 075°31'2 3.4
2017-Oct-14 15:00N 39°24' W 075°29'2 3.7
2017-Oct-14 14:30N 39°23' W 075°28'2 3.6
2017-Oct-14 14:00N 39°21' W 075°26'2 3.8
2017-Oct-14 13:31N 39°20' W 075°25'2 4.1
2017-Oct-14 13:00N 39°18' W 075°23'2 4.3
2017-Oct-14 12:30N 39°17' W 075°21'2 4.5
2017-Oct-14 12:00N 39°15' W 075°19'2 4.9
2017-Oct-14 11:30N 39°13' W 075°18'61 3.9
2017-Oct-13 19:59N 39°39' W 074°05'59 2.7
2017-Oct-12 21:52N 40°38' W 074°03'2 6.4
2017-Oct-12 21:30N 40°40' W 074°02'3 6.2
2017-Oct-12 20:57N 40°43' W 073°59'  
Track history (hours):
 
Tides and Currents Weather Stations Pressure Air Temp Water Temp Dewpoint Dewpoint Depression Visibility Wind Speed Wind Dir Waves Ship Positions

Opsrey

Owner: Clarke Jr, John H, Centreville, MD. More information available from US FCC via Universal Licensing System and Coast Guard Vessel Documentation Center.

Last reported at 2017-Oct-14 23:33 UTC. Time now 2017-Nov-19 12:31 UTC.
Position N 39°24' W 076°03'.
Warning: this ship's position is 35 days out of date.

Length 14 m.

Type: Sailing vessel. MMSI: 367197380.

Date/timePositionNaut miles runAvg speedWind from/ knotsBaromVisibWave heightAir tempDewpointWater temp
2017-Oct-14 23:33N 39°24' W 076°03'1 6.4
2017-Oct-14 23:19N 39°25' W 076°02'2 6.1
2017-Oct-14 22:58N 39°27' W 075°60'3 5.8
2017-Oct-14 22:31N 39°29' W 075°57'3 5.4
2017-Oct-14 22:01N 39°30' W 075°55'3 5.0
2017-Oct-14 21:30N 39°32' W 075°52'2 4.6
2017-Oct-14 21:00N 39°32' W 075°49'2 4.5
2017-Oct-14 20:30N 39°32' W 075°46'2 4.3
2017-Oct-14 20:00N 39°33' W 075°43'2 4.2
2017-Oct-14 19:30N 39°33' W 075°41'2 4.0
2017-Oct-14 19:00N 39°33' W 075°38'2 4.0
2017-Oct-14 18:30N 39°33' W 075°36'2 4.0
2017-Oct-14 18:00N 39°33' W 075°33'2 3.4
2017-Oct-14 17:30N 39°32' W 075°33'2 3.5
2017-Oct-14 17:00N 39°30' W 075°33'1 2.8
2017-Oct-14 16:30N 39°29' W 075°33'2 3.8
2017-Oct-14 16:00N 39°27' W 075°32'2 3.6
2017-Oct-14 15:30N 39°25' W 075°31'2 3.4
2017-Oct-14 15:00N 39°24' W 075°29'2 3.7
2017-Oct-14 14:30N 39°23' W 075°28'2 3.6
2017-Oct-14 14:00N 39°21' W 075°26'2 3.8
2017-Oct-14 13:31N 39°20' W 075°25'2 4.1
2017-Oct-14 13:00N 39°18' W 075°23'2 4.3
2017-Oct-14 12:30N 39°17' W 075°21'2 4.5
2017-Oct-14 12:00N 39°15' W 075°19'2 4.9
2017-Oct-14 11:30N 39°13' W 075°18'61 3.9
2017-Oct-13 19:59N 39°39' W 074°05'59 2.7
2017-Oct-12 21:52N 40°38' W 074°03'2 6.4
2017-Oct-12 21:30N 40°40' W 074°02'3 6.2
2017-Oct-12 20:57N 40°43' W 073°59'  

Dump ship's entire track history